Heaton, North Carolina
Current Conditions -  °F | °C
As of 4:00 PM on Sunday 23 Nov 2014 (Local Time) from KTNB Reporting Station
Moderate Rain Moderate Rain  
Wind Chill: 42°   Ceiling: 500
Heat Index: 45°   Visibility: 4mi
Dew Point: 45°   Wind: 5mph
Humidity: 100%   Direction: 110°ESE
Pressure: 29.95"   Gusts: NA
Location:  36.1731°N, 81.9572°W
Report Text: KTNB 232100Z AUTO 11004KT 4SM RA BKN005 OVC009 07/07 A2995 RMK AO2 LTG DSNT S T00700070
Loading
Personal Weather Stations






























Interactive Weather Map New forecast layout! Learn more

10-Day Weather Forecast

Advertisements
Track Severe Weather on mobile